sensor_id;sensor_type;location;lat;lon;timestamp;temperature;humidity
33761;DHT22;20084;47.912;19.044;2023-08-17T00:02:18;22.80;99.90
33761;DHT22;20084;47.912;19.044;2023-08-17T00:04:44;22.80;99.90
33761;DHT22;20084;47.912;19.044;2023-08-17T00:07:09;22.80;99.90
33761;DHT22;20084;47.912;19.044;2023-08-17T00:09:35;22.80;99.90
33761;DHT22;20084;47.912;19.044;2023-08-17T00:12:01;22.90;99.90
33761;DHT22;20084;47.912;19.044;2023-08-17T00:14:26;22.90;99.90
33761;DHT22;20084;47.912;19.044;2023-08-17T00:16:52;22.90;99.90
33761;DHT22;20084;47.912;19.044;2023-08-17T00:19:18;22.90;99.90
33761;DHT22;20084;47.912;19.044;2023-08-17T00:21:44;22.90;99.90
33761;DHT22;20084;47.912;19.044;2023-08-17T00:24:10;23.00;99.90
33761;DHT22;20084;47.912;19.044;2023-08-17T00:26:37;23.00;99.90
33761;DHT22;20084;47.912;19.044;2023-08-17T00:29:02;22.90;99.90
33761;DHT22;20084;47.912;19.044;2023-08-17T00:31:28;22.90;99.90
33761;DHT22;20084;47.912;19.044;2023-08-17T00:33:54;22.80;99.90
33761;DHT22;20084;47.912;19.044;2023-08-17T00:36:20;22.80;99.90
33761;DHT22;20084;47.912;19.044;2023-08-17T00:38:45;22.70;99.90
33761;DHT22;20084;47.912;19.044;2023-08-17T00:41:11;22.70;99.90
33761;DHT22;20084;47.912;19.044;2023-08-17T00:43:37;22.70;99.90
33761;DHT22;20084;47.912;19.044;2023-08-17T00:46:03;22.70;99.90
33761;DHT22;20084;47.912;19.044;2023-08-17T00:48:29;22.70;99.90
33761;DHT22;20084;47.912;19.044;2023-08-17T00:50:56;22.60;99.90
33761;DHT22;20084;47.912;19.044;2023-08-17T00:53:23;22.60;99.90
33761;DHT22;20084;47.912;19.044;2023-08-17T00:55:50;22.60;99.90
33761;DHT22;20084;47.912;19.044;2023-08-17T00:58:16;22.70;99.90
33761;DHT22;20084;47.912;19.044;2023-08-17T01:00:42;22.70;99.90
33761;DHT22;20084;47.912;19.044;2023-08-17T01:03:07;22.70;99.90
33761;DHT22;20084;47.912;19.044;2023-08-17T01:05:34;22.60;99.90
33761;DHT22;20084;47.912;19.044;2023-08-17T01:07:59;22.70;99.90
33761;DHT22;20084;47.912;19.044;2023-08-17T01:10:41;22.70;99.90
33761;DHT22;20084;47.912;19.044;2023-08-17T01:13:15;22.70;99.90
33761;DHT22;20084;47.912;19.044;2023-08-17T01:15:49;22.70;99.90
33761;DHT22;20084;47.912;19.044;2023-08-17T01:18:29;22.70;99.90
33761;DHT22;20084;47.912;19.044;2023-08-17T01:20:57;22.70;99.90
33761;DHT22;20084;47.912;19.044;2023-08-17T01:23:22;22.70;99.90
33761;DHT22;20084;47.912;19.044;2023-08-17T01:25:48;22.60;99.90
33761;DHT22;20084;47.912;19.044;2023-08-17T01:28:14;22.70;99.90
33761;DHT22;20084;47.912;19.044;2023-08-17T01:33:58;22.60;99.90
33761;DHT22;20084;47.912;19.044;2023-08-17T01:36:33;22.60;99.90
33761;DHT22;20084;47.912;19.044;2023-08-17T01:39:01;22.60;99.90
33761;DHT22;20084;47.912;19.044;2023-08-17T01:41:28;22.60;99.90
33761;DHT22;20084;47.912;19.044;2023-08-17T01:43:56;22.60;99.90
33761;DHT22;20084;47.912;19.044;2023-08-17T01:46:22;22.60;99.90
33761;DHT22;20084;47.912;19.044;2023-08-17T01:48:47;22.50;99.90
33761;DHT22;20084;47.912;19.044;2023-08-17T01:51:18;22.50;99.90
33761;DHT22;20084;47.912;19.044;2023-08-17T01:53:47;22.50;99.90
33761;DHT22;20084;47.912;19.044;2023-08-17T01:56:13;22.50;99.90
33761;DHT22;20084;47.912;19.044;2023-08-17T01:58:38;22.40;99.90
33761;DHT22;20084;47.912;19.044;2023-08-17T02:01:04;22.40;99.90
33761;DHT22;20084;47.912;19.044;2023-08-17T02:03:30;22.50;99.90
33761;DHT22;20084;47.912;19.044;2023-08-17T02:05:56;22.50;99.90
33761;DHT22;20084;47.912;19.044;2023-08-17T02:08:22;22.50;99.90
33761;DHT22;20084;47.912;19.044;2023-08-17T02:10:48;22.50;99.90
33761;DHT22;20084;47.912;19.044;2023-08-17T02:13:15;22.50;99.90
33761;DHT22;20084;47.912;19.044;2023-08-17T02:15:41;22.40;99.90
33761;DHT22;20084;47.912;19.044;2023-08-17T02:18:07;22.40;99.90
33761;DHT22;20084;47.912;19.044;2023-08-17T02:20:32;22.40;99.90
33761;DHT22;20084;47.912;19.044;2023-08-17T02:22:58;22.30;99.90
33761;DHT22;20084;47.912;19.044;2023-08-17T02:25:24;22.30;99.90
33761;DHT22;20084;47.912;19.044;2023-08-17T02:27:49;22.30;99.90
33761;DHT22;20084;47.912;19.044;2023-08-17T02:30:15;22.30;99.90
33761;DHT22;20084;47.912;19.044;2023-08-17T02:32:40;22.30;99.90
33761;DHT22;20084;47.912;19.044;2023-08-17T02:35:07;22.30;99.90
33761;DHT22;20084;47.912;19.044;2023-08-17T02:37:33;22.30;99.90
33761;DHT22;20084;47.912;19.044;2023-08-17T02:39:59;22.30;99.90
33761;DHT22;20084;47.912;19.044;2023-08-17T02:42:24;22.20;99.90
33761;DHT22;20084;47.912;19.044;2023-08-17T02:44:50;22.30;99.90
33761;DHT22;20084;47.912;19.044;2023-08-17T02:47:15;22.30;99.90
33761;DHT22;20084;47.912;19.044;2023-08-17T02:49:41;22.20;99.90
33761;DHT22;20084;47.912;19.044;2023-08-17T02:52:07;22.20;99.90
33761;DHT22;20084;47.912;19.044;2023-08-17T02:54:32;22.30;99.90
33761;DHT22;20084;47.912;19.044;2023-08-17T02:56:59;22.20;99.90
33761;DHT22;20084;47.912;19.044;2023-08-17T02:59:25;22.30;99.90
33761;DHT22;20084;47.912;19.044;2023-08-17T03:01:50;22.30;99.90
33761;DHT22;20084;47.912;19.044;2023-08-17T03:04:16;22.30;99.90
33761;DHT22;20084;47.912;19.044;2023-08-17T03:06:42;22.30;99.90
33761;DHT22;20084;47.912;19.044;2023-08-17T03:09:07;22.30;99.90
33761;DHT22;20084;47.912;19.044;2023-08-17T03:11:33;22.30;99.90
33761;DHT22;20084;47.912;19.044;2023-08-17T03:13:58;22.40;99.90
33761;DHT22;20084;47.912;19.044;2023-08-17T03:16:27;22.40;99.90
33761;DHT22;20084;47.912;19.044;2023-08-17T03:18:53;22.40;99.90
33761;DHT22;20084;47.912;19.044;2023-08-17T03:21:18;22.30;99.90
33761;DHT22;20084;47.912;19.044;2023-08-17T03:23:45;22.20;99.90
33761;DHT22;20084;47.912;19.044;2023-08-17T03:26:10;22.20;99.90
33761;DHT22;20084;47.912;19.044;2023-08-17T03:28:36;22.10;99.90
33761;DHT22;20084;47.912;19.044;2023-08-17T03:31:02;22.10;99.90
33761;DHT22;20084;47.912;19.044;2023-08-17T03:33:28;22.10;99.90
33761;DHT22;20084;47.912;19.044;2023-08-17T03:35:54;22.00;99.90
33761;DHT22;20084;47.912;19.044;2023-08-17T03:38:19;22.00;99.90
33761;DHT22;20084;47.912;19.044;2023-08-17T03:40:46;22.00;99.90
33761;DHT22;20084;47.912;19.044;2023-08-17T03:43:13;22.00;99.90
33761;DHT22;20084;47.912;19.044;2023-08-17T03:45:40;22.00;99.90
33761;DHT22;20084;47.912;19.044;2023-08-17T03:48:06;22.00;99.90
33761;DHT22;20084;47.912;19.044;2023-08-17T03:50:32;22.00;99.90
33761;DHT22;20084;47.912;19.044;2023-08-17T03:52:58;21.90;99.90
33761;DHT22;20084;47.912;19.044;2023-08-17T03:55:23;22.00;99.90
33761;DHT22;20084;47.912;19.044;2023-08-17T03:57:49;21.90;99.90
33761;DHT22;20084;47.912;19.044;2023-08-17T04:00:15;21.90;99.90
33761;DHT22;20084;47.912;19.044;2023-08-17T04:02:41;21.90;99.90
33761;DHT22;20084;47.912;19.044;2023-08-17T04:05:06;21.90;99.90
33761;DHT22;20084;47.912;19.044;2023-08-17T04:07:32;21.90;99.90
33761;DHT22;20084;47.912;19.044;2023-08-17T04:09:58;21.80;99.90
33761;DHT22;20084;47.912;19.044;2023-08-17T04:12:23;21.80;99.90
33761;DHT22;20084;47.912;19.044;2023-08-17T04:14:49;21.80;99.90
33761;DHT22;20084;47.912;19.044;2023-08-17T04:17:15;21.80;99.90
33761;DHT22;20084;47.912;19.044;2023-08-17T04:19:40;21.80;99.90
33761;DHT22;20084;47.912;19.044;2023-08-17T04:22:06;21.80;99.90
33761;DHT22;20084;47.912;19.044;2023-08-17T04:24:31;21.90;99.90
33761;DHT22;20084;47.912;19.044;2023-08-17T04:26:57;21.90;99.90
33761;DHT22;20084;47.912;19.044;2023-08-17T04:29:23;22.00;99.90
33761;DHT22;20084;47.912;19.044;2023-08-17T04:31:48;21.90;99.90
33761;DHT22;20084;47.912;19.044;2023-08-17T04:34:14;22.00;99.90
33761;DHT22;20084;47.912;19.044;2023-08-17T04:36:40;22.00;99.90
33761;DHT22;20084;47.912;19.044;2023-08-17T04:39:05;22.00;99.90
33761;DHT22;20084;47.912;19.044;2023-08-17T04:41:31;22.00;99.90
33761;DHT22;20084;47.912;19.044;2023-08-17T04:43:57;22.00;99.90
33761;DHT22;20084;47.912;19.044;2023-08-17T04:46:23;22.00;99.90
33761;DHT22;20084;47.912;19.044;2023-08-17T04:48:48;22.10;99.90
33761;DHT22;20084;47.912;19.044;2023-08-17T04:51:15;22.10;99.90
33761;DHT22;20084;47.912;19.044;2023-08-17T04:53:41;22.20;99.90
33761;DHT22;20084;47.912;19.044;2023-08-17T04:56:06;22.20;99.90
33761;DHT22;20084;47.912;19.044;2023-08-17T04:58:32;22.20;99.90
33761;DHT22;20084;47.912;19.044;2023-08-17T05:00:59;22.20;99.90
33761;DHT22;20084;47.912;19.044;2023-08-17T05:03:25;22.20;99.90
33761;DHT22;20084;47.912;19.044;2023-08-17T05:05:52;22.20;99.90
33761;DHT22;20084;47.912;19.044;2023-08-17T05:08:18;22.20;99.90
33761;DHT22;20084;47.912;19.044;2023-08-17T05:10:44;22.30;99.90
33761;DHT22;20084;47.912;19.044;2023-08-17T05:13:09;22.30;99.90
33761;DHT22;20084;47.912;19.044;2023-08-17T05:15:35;22.30;99.90
33761;DHT22;20084;47.912;19.044;2023-08-17T05:18:01;22.30;99.90
33761;DHT22;20084;47.912;19.044;2023-08-17T05:20:26;22.40;99.90
33761;DHT22;20084;47.912;19.044;2023-08-17T05:22:52;22.40;99.90
33761;DHT22;20084;47.912;19.044;2023-08-17T05:25:17;22.50;99.90
33761;DHT22;20084;47.912;19.044;2023-08-17T05:27:43;22.50;99.90
33761;DHT22;20084;47.912;19.044;2023-08-17T05:30:09;22.50;99.90
33761;DHT22;20084;47.912;19.044;2023-08-17T05:32:34;22.60;99.90
33761;DHT22;20084;47.912;19.044;2023-08-17T05:35:00;22.60;99.90
33761;DHT22;20084;47.912;19.044;2023-08-17T05:37:26;22.70;99.90
33761;DHT22;20084;47.912;19.044;2023-08-17T05:39:51;22.70;99.90
33761;DHT22;20084;47.912;19.044;2023-08-17T05:42:17;22.70;99.90
33761;DHT22;20084;47.912;19.044;2023-08-17T05:44:42;22.80;99.90
33761;DHT22;20084;47.912;19.044;2023-08-17T05:47:08;22.80;99.90
33761;DHT22;20084;47.912;19.044;2023-08-17T05:49:34;22.90;99.90
33761;DHT22;20084;47.912;19.044;2023-08-17T05:51:59;22.90;99.90
33761;DHT22;20084;47.912;19.044;2023-08-17T05:54:25;23.00;99.90
33761;DHT22;20084;47.912;19.044;2023-08-17T05:56:50;23.00;99.90
33761;DHT22;20084;47.912;19.044;2023-08-17T05:59:16;23.10;99.90
33761;DHT22;20084;47.912;19.044;2023-08-17T06:01:42;23.10;99.90
33761;DHT22;20084;47.912;19.044;2023-08-17T06:04:08;23.10;99.90
33761;DHT22;20084;47.912;19.044;2023-08-17T06:06:34;23.20;99.90
33761;DHT22;20084;47.912;19.044;2023-08-17T06:08:59;23.20;99.90
33761;DHT22;20084;47.912;19.044;2023-08-17T06:11:25;23.20;99.90
33761;DHT22;20084;47.912;19.044;2023-08-17T06:13:51;23.20;99.90
33761;DHT22;20084;47.912;19.044;2023-08-17T06:16:17;23.20;99.90
33761;DHT22;20084;47.912;19.044;2023-08-17T06:18:42;23.20;99.90
33761;DHT22;20084;47.912;19.044;2023-08-17T06:21:08;23.20;99.90
33761;DHT22;20084;47.912;19.044;2023-08-17T06:23:34;23.20;99.90
33761;DHT22;20084;47.912;19.044;2023-08-17T06:26:00;23.10;99.90
33761;DHT22;20084;47.912;19.044;2023-08-17T06:28:26;23.00;99.90
33761;DHT22;20084;47.912;19.044;2023-08-17T06:30:53;23.10;99.90
33761;DHT22;20084;47.912;19.044;2023-08-17T06:33:19;23.20;99.90
33761;DHT22;20084;47.912;19.044;2023-08-17T06:35:45;23.20;99.90
33761;DHT22;20084;47.912;19.044;2023-08-17T06:38:10;23.20;99.90
33761;DHT22;20084;47.912;19.044;2023-08-17T06:40:36;23.30;99.90
33761;DHT22;20084;47.912;19.044;2023-08-17T06:43:02;23.40;99.90
33761;DHT22;20084;47.912;19.044;2023-08-17T06:45:28;23.40;99.90
33761;DHT22;20084;47.912;19.044;2023-08-17T06:47:54;23.40;99.90
33761;DHT22;20084;47.912;19.044;2023-08-17T06:50:19;23.40;99.90
33761;DHT22;20084;47.912;19.044;2023-08-17T06:52:45;23.50;99.90
33761;DHT22;20084;47.912;19.044;2023-08-17T06:55:10;23.60;99.90
33761;DHT22;20084;47.912;19.044;2023-08-17T06:57:36;23.60;99.90
33761;DHT22;20084;47.912;19.044;2023-08-17T07:00:02;23.60;99.90
33761;DHT22;20084;47.912;19.044;2023-08-17T07:02:30;23.70;99.90
33761;DHT22;20084;47.912;19.044;2023-08-17T07:04:56;23.70;99.90
33761;DHT22;20084;47.912;19.044;2023-08-17T07:07:22;23.80;99.90
33761;DHT22;20084;47.912;19.044;2023-08-17T07:09:47;23.80;99.90
33761;DHT22;20084;47.912;19.044;2023-08-17T07:12:13;23.80;99.90
33761;DHT22;20084;47.912;19.044;2023-08-17T07:14:39;23.80;99.90
33761;DHT22;20084;47.912;19.044;2023-08-17T07:17:04;23.80;99.90
33761;DHT22;20084;47.912;19.044;2023-08-17T07:19:30;23.90;99.90
33761;DHT22;20084;47.912;19.044;2023-08-17T07:21:55;23.90;99.90
33761;DHT22;20084;47.912;19.044;2023-08-17T07:24:21;24.00;99.90
33761;DHT22;20084;47.912;19.044;2023-08-17T07:26:47;23.90;99.90
33761;DHT22;20084;47.912;19.044;2023-08-17T07:29:12;24.00;99.90
33761;DHT22;20084;47.912;19.044;2023-08-17T07:31:39;23.90;99.90
33761;DHT22;20084;47.912;19.044;2023-08-17T07:34:05;23.90;99.90
33761;DHT22;20084;47.912;19.044;2023-08-17T07:36:32;24.00;99.90
33761;DHT22;20084;47.912;19.044;2023-08-17T07:38:58;24.00;99.90
33761;DHT22;20084;47.912;19.044;2023-08-17T07:41:24;23.90;99.90
33761;DHT22;20084;47.912;19.044;2023-08-17T07:43:50;23.90;99.90
33761;DHT22;20084;47.912;19.044;2023-08-17T07:46:15;23.90;99.90
33761;DHT22;20084;47.912;19.044;2023-08-17T07:48:41;24.00;99.90
33761;DHT22;20084;47.912;19.044;2023-08-17T07:51:07;24.10;99.90
33761;DHT22;20084;47.912;19.044;2023-08-17T07:53:32;24.20;99.90
33761;DHT22;20084;47.912;19.044;2023-08-17T07:55:58;24.30;99.90
33761;DHT22;20084;47.912;19.044;2023-08-17T07:58:24;24.40;99.90
33761;DHT22;20084;47.912;19.044;2023-08-17T08:00:49;24.40;99.90
33761;DHT22;20084;47.912;19.044;2023-08-17T08:03:15;24.60;99.90
33761;DHT22;20084;47.912;19.044;2023-08-17T08:05:41;24.60;99.90
33761;DHT22;20084;47.912;19.044;2023-08-17T08:08:06;24.70;99.90
33761;DHT22;20084;47.912;19.044;2023-08-17T08:10:32;24.70;99.90
33761;DHT22;20084;47.912;19.044;2023-08-17T08:12:58;24.80;99.90
33761;DHT22;20084;47.912;19.044;2023-08-17T08:15:24;24.80;99.90
33761;DHT22;20084;47.912;19.044;2023-08-17T08:17:49;24.90;99.90
33761;DHT22;20084;47.912;19.044;2023-08-17T08:20:15;25.00;99.90
33761;DHT22;20084;47.912;19.044;2023-08-17T08:22:41;25.00;99.90
33761;DHT22;20084;47.912;19.044;2023-08-17T08:25:06;25.00;99.90
33761;DHT22;20084;47.912;19.044;2023-08-17T08:27:32;25.10;99.90
33761;DHT22;20084;47.912;19.044;2023-08-17T08:29:58;25.10;99.90
33761;DHT22;20084;47.912;19.044;2023-08-17T08:32:23;25.10;99.90
33761;DHT22;20084;47.912;19.044;2023-08-17T08:34:49;25.10;99.90
33761;DHT22;20084;47.912;19.044;2023-08-17T08:37:15;25.10;99.90
33761;DHT22;20084;47.912;19.044;2023-08-17T08:39:51;25.20;99.90
33761;DHT22;20084;47.912;19.044;2023-08-17T08:42:17;25.30;99.90
33761;DHT22;20084;47.912;19.044;2023-08-17T08:44:44;25.30;99.90
33761;DHT22;20084;47.912;19.044;2023-08-17T08:47:10;25.30;99.90
33761;DHT22;20084;47.912;19.044;2023-08-17T08:49:39;25.30;99.90
33761;DHT22;20084;47.912;19.044;2023-08-17T08:52:07;25.30;99.90
33761;DHT22;20084;47.912;19.044;2023-08-17T08:54:35;25.50;99.90
33761;DHT22;20084;47.912;19.044;2023-08-17T08:57:08;25.60;99.90
33761;DHT22;20084;47.912;19.044;2023-08-17T08:59:35;25.90;99.90
33761;DHT22;20084;47.912;19.044;2023-08-17T09:02:03;26.00;99.90
33761;DHT22;20084;47.912;19.044;2023-08-17T09:04:29;26.00;99.90
33761;DHT22;20084;47.912;19.044;2023-08-17T09:06:55;26.10;99.90
33761;DHT22;20084;47.912;19.044;2023-08-17T09:09:22;26.20;99.90
33761;DHT22;20084;47.912;19.044;2023-08-17T09:11:48;26.30;99.90
33761;DHT22;20084;47.912;19.044;2023-08-17T09:14:14;26.40;99.90
33761;DHT22;20084;47.912;19.044;2023-08-17T09:16:39;26.60;99.90
33761;DHT22;20084;47.912;19.044;2023-08-17T09:19:06;26.60;99.90
33761;DHT22;20084;47.912;19.044;2023-08-17T09:21:32;26.60;99.90
33761;DHT22;20084;47.912;19.044;2023-08-17T09:23:58;26.60;99.90
33761;DHT22;20084;47.912;19.044;2023-08-17T09:26:24;26.60;99.90
33761;DHT22;20084;47.912;19.044;2023-08-17T09:28:53;26.60;99.90
33761;DHT22;20084;47.912;19.044;2023-08-17T09:31:23;26.50;99.90
33761;DHT22;20084;47.912;19.044;2023-08-17T09:33:50;26.40;99.90
33761;DHT22;20084;47.912;19.044;2023-08-17T09:36:20;26.40;99.90
33761;DHT22;20084;47.912;19.044;2023-08-17T09:38:48;26.40;99.90
33761;DHT22;20084;47.912;19.044;2023-08-17T09:41:15;26.40;99.90
33761;DHT22;20084;47.912;19.044;2023-08-17T09:43:41;26.40;99.90
33761;DHT22;20084;47.912;19.044;2023-08-17T09:46:06;26.50;99.90
33761;DHT22;20084;47.912;19.044;2023-08-17T09:48:33;26.50;99.90
33761;DHT22;20084;47.912;19.044;2023-08-17T09:50:59;26.50;99.90
33761;DHT22;20084;47.912;19.044;2023-08-17T09:53:26;26.60;99.90
33761;DHT22;20084;47.912;19.044;2023-08-17T09:55:53;26.60;99.90
33761;DHT22;20084;47.912;19.044;2023-08-17T09:58:21;26.60;99.90
33761;DHT22;20084;47.912;19.044;2023-08-17T10:00:50;26.60;99.90
33761;DHT22;20084;47.912;19.044;2023-08-17T10:03:17;26.60;99.90
33761;DHT22;20084;47.912;19.044;2023-08-17T10:05:46;26.70;99.90
33761;DHT22;20084;47.912;19.044;2023-08-17T10:08:13;26.70;99.90
33761;DHT22;20084;47.912;19.044;2023-08-17T10:10:43;26.70;99.90
33761;DHT22;20084;47.912;19.044;2023-08-17T10:13:42;26.70;99.90
33761;DHT22;20084;47.912;19.044;2023-08-17T10:16:26;26.80;99.90
33761;DHT22;20084;47.912;19.044;2023-08-17T10:24:07;26.90;99.90
33761;DHT22;20084;47.912;19.044;2023-08-17T10:26:33;26.80;99.90
33761;DHT22;20084;47.912;19.044;2023-08-17T10:28:59;26.70;99.90
33761;DHT22;20084;47.912;19.044;2023-08-17T10:31:29;26.80;99.90
33761;DHT22;20084;47.912;19.044;2023-08-17T10:33:55;26.80;99.90
33761;DHT22;20084;47.912;19.044;2023-08-17T10:36:22;26.80;99.90
33761;DHT22;20084;47.912;19.044;2023-08-17T10:39:21;26.70;99.90
33761;DHT22;20084;47.912;19.044;2023-08-17T10:41:48;26.70;99.90
33761;DHT22;20084;47.912;19.044;2023-08-17T10:44:14;26.70;99.90
33761;DHT22;20084;47.912;19.044;2023-08-17T10:46:40;26.70;99.90
33761;DHT22;20084;47.912;19.044;2023-08-17T10:49:07;26.80;99.90
33761;DHT22;20084;47.912;19.044;2023-08-17T10:52:06;26.80;99.90
33761;DHT22;20084;47.912;19.044;2023-08-17T10:54:39;26.90;99.90
33761;DHT22;20084;47.912;19.044;2023-08-17T10:57:38;27.00;99.90
33761;DHT22;20084;47.912;19.044;2023-08-17T11:02:37;27.00;99.90
33761;DHT22;20084;47.912;19.044;2023-08-17T11:05:03;27.00;99.90
33761;DHT22;20084;47.912;19.044;2023-08-17T11:07:43;27.00;99.90
33761;DHT22;20084;47.912;19.044;2023-08-17T11:10:29;26.90;99.90
33761;DHT22;20084;47.912;19.044;2023-08-17T11:12:56;26.90;99.90
33761;DHT22;20084;47.912;19.044;2023-08-17T11:15:45;27.00;99.90
33761;DHT22;20084;47.912;19.044;2023-08-17T11:18:13;27.10;99.90
33761;DHT22;20084;47.912;19.044;2023-08-17T11:20:40;27.20;99.90
33761;DHT22;20084;47.912;19.044;2023-08-17T11:23:08;27.30;99.90
33761;DHT22;20084;47.912;19.044;2023-08-17T11:25:34;27.30;99.90
33761;DHT22;20084;47.912;19.044;2023-08-17T11:28:01;27.30;99.90
33761;DHT22;20084;47.912;19.044;2023-08-17T11:30:27;27.30;99.90
33761;DHT22;20084;47.912;19.044;2023-08-17T11:32:54;27.20;99.90
33761;DHT22;20084;47.912;19.044;2023-08-17T11:35:20;27.20;99.90
33761;DHT22;20084;47.912;19.044;2023-08-17T11:37:46;27.20;99.90
33761;DHT22;20084;47.912;19.044;2023-08-17T11:40:14;27.30;99.90
33761;DHT22;20084;47.912;19.044;2023-08-17T11:42:40;27.40;99.90
33761;DHT22;20084;47.912;19.044;2023-08-17T11:45:06;27.40;99.90
33761;DHT22;20084;47.912;19.044;2023-08-17T11:47:39;27.50;99.90
33761;DHT22;20084;47.912;19.044;2023-08-17T11:50:06;27.60;99.90
33761;DHT22;20084;47.912;19.044;2023-08-17T11:52:32;27.60;99.90
33761;DHT22;20084;47.912;19.044;2023-08-17T11:55:04;27.60;99.90
33761;DHT22;20084;47.912;19.044;2023-08-17T11:57:34;27.90;99.90
33761;DHT22;20084;47.912;19.044;2023-08-17T12:00:00;28.00;99.90
33761;DHT22;20084;47.912;19.044;2023-08-17T12:02:27;28.10;99.90
33761;DHT22;20084;47.912;19.044;2023-08-17T12:04:55;28.10;99.90
33761;DHT22;20084;47.912;19.044;2023-08-17T12:07:23;28.10;99.90
33761;DHT22;20084;47.912;19.044;2023-08-17T12:09:49;28.00;99.90
33761;DHT22;20084;47.912;19.044;2023-08-17T12:12:36;28.00;99.90
33761;DHT22;20084;47.912;19.044;2023-08-17T12:15:04;27.90;99.90
33761;DHT22;20084;47.912;19.044;2023-08-17T12:17:29;27.80;99.90
33761;DHT22;20084;47.912;19.044;2023-08-17T12:19:55;27.80;99.90
33761;DHT22;20084;47.912;19.044;2023-08-17T12:22:24;27.70;99.90
33761;DHT22;20084;47.912;19.044;2023-08-17T12:24:50;27.50;99.90
33761;DHT22;20084;47.912;19.044;2023-08-17T12:27:15;27.20;99.90
33761;DHT22;20084;47.912;19.044;2023-08-17T12:29:51;27.00;99.90
33761;DHT22;20084;47.912;19.044;2023-08-17T12:32:19;26.90;99.90
33761;DHT22;20084;47.912;19.044;2023-08-17T12:34:45;26.80;99.90
33761;DHT22;20084;47.912;19.044;2023-08-17T12:37:12;26.80;99.90
33761;DHT22;20084;47.912;19.044;2023-08-17T12:39:38;26.70;99.90
33761;DHT22;20084;47.912;19.044;2023-08-17T12:42:04;26.60;99.90
33761;DHT22;20084;47.912;19.044;2023-08-17T12:44:30;26.60;99.90
33761;DHT22;20084;47.912;19.044;2023-08-17T12:46:56;26.50;99.90
33761;DHT22;20084;47.912;19.044;2023-08-17T12:49:23;26.50;99.90
33761;DHT22;20084;47.912;19.044;2023-08-17T12:51:49;26.50;99.90
33761;DHT22;20084;47.912;19.044;2023-08-17T12:54:14;26.50;99.90
33761;DHT22;20084;47.912;19.044;2023-08-17T12:56:40;26.50;99.90
33761;DHT22;20084;47.912;19.044;2023-08-17T12:59:06;26.50;99.90
33761;DHT22;20084;47.912;19.044;2023-08-17T13:01:31;26.40;99.90
33761;DHT22;20084;47.912;19.044;2023-08-17T13:03:57;26.20;99.90
33761;DHT22;20084;47.912;19.044;2023-08-17T13:06:22;26.10;99.90
33761;DHT22;20084;47.912;19.044;2023-08-17T13:08:48;25.90;99.90
33761;DHT22;20084;47.912;19.044;2023-08-17T13:11:14;25.80;99.90
33761;DHT22;20084;47.912;19.044;2023-08-17T13:13:39;25.80;99.90
33761;DHT22;20084;47.912;19.044;2023-08-17T13:16:05;25.90;99.90
33761;DHT22;20084;47.912;19.044;2023-08-17T13:18:30;26.00;99.90
33761;DHT22;20084;47.912;19.044;2023-08-17T13:20:56;26.20;99.90
33761;DHT22;20084;47.912;19.044;2023-08-17T13:23:22;26.30;99.90
33761;DHT22;20084;47.912;19.044;2023-08-17T13:25:47;26.30;99.90
33761;DHT22;20084;47.912;19.044;2023-08-17T13:28:13;26.50;99.90
33761;DHT22;20084;47.912;19.044;2023-08-17T13:30:39;26.60;99.90
33761;DHT22;20084;47.912;19.044;2023-08-17T13:33:05;26.60;99.90
33761;DHT22;20084;47.912;19.044;2023-08-17T13:35:32;26.80;99.90
33761;DHT22;20084;47.912;19.044;2023-08-17T13:37:58;27.00;99.90
33761;DHT22;20084;47.912;19.044;2023-08-17T13:40:24;27.00;99.90
33761;DHT22;20084;47.912;19.044;2023-08-17T13:42:50;27.00;99.90
33761;DHT22;20084;47.912;19.044;2023-08-17T13:45:16;27.00;99.90
33761;DHT22;20084;47.912;19.044;2023-08-17T13:47:42;27.00;99.90
33761;DHT22;20084;47.912;19.044;2023-08-17T13:50:08;27.20;99.90
33761;DHT22;20084;47.912;19.044;2023-08-17T13:52:33;27.30;99.90
33761;DHT22;20084;47.912;19.044;2023-08-17T13:54:59;27.40;99.90
33761;DHT22;20084;47.912;19.044;2023-08-17T13:57:24;27.50;99.90
33761;DHT22;20084;47.912;19.044;2023-08-17T13:59:50;27.60;99.90
33761;DHT22;20084;47.912;19.044;2023-08-17T14:02:17;27.60;99.90
33761;DHT22;20084;47.912;19.044;2023-08-17T14:04:43;27.70;99.90
33761;DHT22;20084;47.912;19.044;2023-08-17T14:07:08;27.70;99.90
33761;DHT22;20084;47.912;19.044;2023-08-17T14:09:34;27.80;99.90
33761;DHT22;20084;47.912;19.044;2023-08-17T14:11:59;27.80;99.90
33761;DHT22;20084;47.912;19.044;2023-08-17T14:14:26;27.70;99.90
33761;DHT22;20084;47.912;19.044;2023-08-17T14:16:52;27.50;99.90
33761;DHT22;20084;47.912;19.044;2023-08-17T14:19:18;27.40;99.90
33761;DHT22;20084;47.912;19.044;2023-08-17T14:21:43;27.30;99.90
33761;DHT22;20084;47.912;19.044;2023-08-17T14:24:09;27.30;99.90
33761;DHT22;20084;47.912;19.044;2023-08-17T14:26:35;27.40;99.90
33761;DHT22;20084;47.912;19.044;2023-08-17T14:29:01;27.50;99.90
33761;DHT22;20084;47.912;19.044;2023-08-17T14:31:26;27.50;99.90
33761;DHT22;20084;47.912;19.044;2023-08-17T14:33:52;27.50;99.90
33761;DHT22;20084;47.912;19.044;2023-08-17T14:36:17;27.40;99.90
33761;DHT22;20084;47.912;19.044;2023-08-17T14:38:43;27.40;99.90
33761;DHT22;20084;47.912;19.044;2023-08-17T14:41:09;27.30;99.90
33761;DHT22;20084;47.912;19.044;2023-08-17T14:43:35;27.20;99.90
33761;DHT22;20084;47.912;19.044;2023-08-17T14:46:00;27.30;99.90
33761;DHT22;20084;47.912;19.044;2023-08-17T14:48:26;27.40;99.90
33761;DHT22;20084;47.912;19.044;2023-08-17T14:50:52;27.50;99.90
33761;DHT22;20084;47.912;19.044;2023-08-17T14:53:18;27.40;99.90
33761;DHT22;20084;47.912;19.044;2023-08-17T14:55:43;27.30;99.90
33761;DHT22;20084;47.912;19.044;2023-08-17T14:58:09;27.20;99.90
33761;DHT22;20084;47.912;19.044;2023-08-17T15:00:35;27.10;99.90
33761;DHT22;20084;47.912;19.044;2023-08-17T15:03:01;27.10;99.90
33761;DHT22;20084;47.912;19.044;2023-08-17T15:05:26;27.00;99.90
33761;DHT22;20084;47.912;19.044;2023-08-17T15:07:52;26.90;99.90
33761;DHT22;20084;47.912;19.044;2023-08-17T15:10:18;26.80;99.90
33761;DHT22;20084;47.912;19.044;2023-08-17T15:12:44;26.80;99.90
33761;DHT22;20084;47.912;19.044;2023-08-17T15:15:09;26.80;99.90
33761;DHT22;20084;47.912;19.044;2023-08-17T15:17:35;26.80;99.90
33761;DHT22;20084;47.912;19.044;2023-08-17T15:20:01;26.70;99.90
33761;DHT22;20084;47.912;19.044;2023-08-17T15:22:27;26.60;99.90
33761;DHT22;20084;47.912;19.044;2023-08-17T15:24:53;26.40;99.90